KIRS/IRS METAR and TAF weather

Enter ICAO airport designator
Station Type Date Time Source
KIRS METAR 2022/01/25 05:15 UTC NOAA

KIRS 250515Z AUTO 29004KT 10SM -SN OVC030 M06/M08 A2988 RMK AO2 T10651080


Station Type Date Time Source
KIRS Decoded METAR 2022/01/25 05:15 UTC NOAA

Sturgis, Kirsch Municipal Airport, MI, United States (KIRS) 41-48-46N 085-26-21W
Jan 25, 2022 - 12:15 AM EST / 2022.01.25 0515 UTC
Wind: from the WNW (290 degrees) at 5 MPH (4 KT):0
Visibility: 10 mile(s):0
Sky conditions: overcast
Weather: light snow
Temperature: 20.3 F (-6.5 C)
Windchill: 14 F (-10 C):1
Dew Point: 17.6 F (-8.0 C)
Relative Humidity: 89%
Pressure (altimeter): 29.88 in. Hg (1011 hPa)
ob: KIRS 250515Z AUTO 29004KT 10SM -SN OVC030 M06/M08 A2988 RMK AO2 T10651080
cycle: 5

Station Type Date Time Source
KIRS TAF UTC NOAA

Error!

Example: see airport list